الصفحة الرئيسية
METAR-TAF:

METAR-TAF

مطار :

Rota, جزر ماريانا, الولايات المتحدة

دائرة عرض: 14-11N, خط طول: 145-15E, ارتفاع: 185 متر

مراقبة الطقس الحالي

تاريخ ووقت الإصدار 7ساعات و 28 دقيقة قبل الساعة 07:50UTC
ريح 9 عقدة من الشرق
درجة الحرارة 26°درجة مئوية
الرطوبة 89%
ضغط 1011 hPa
الرؤية: 11.3 كم
غيوم متفرقة على ارتفاع 1500 قدم
غيوم مفككة على ارتفاع 10000 قدم

METAR: PGRO 010750Z 09009KT 7SM SCT015 BKN100 26/24 A2985 RMK LAST

زمن: 01:18 (15:18 UTC)

توقعات

تاريخ ووقت الإصدار 9ساعات و 46 دقيقة قبل الساعة 05:32UTC
التوقعات صالحة من01 الساعة 06 UTC إلى 02 الساعة 06 UTC
ريح 15 عقدة من الشرق
الرؤية: 10 كم
غيوم متفرقة على ارتفاع 1400 قدم
غيوم متفرقة على ارتفاع 5000 قدم
زخات في الجوار,

TAF: PGRO 010532Z 0106/0206 08015KT P6SM VCSH SCT014 SCT050

أرصاد الطقس والتوقعات من أكثر من 4000 مطار (تقارير الطقس للمطار METAR والتنبؤ بالطقس بالمطارTAF).

المحطات المتاحة هي النقط الصفراء والحمراء على الخريطة.

حرك المؤشر فوق النقطة لمعرفة اسم المحطة.

ثم انقر لمعرفة أرصاد وتوقعات الطقس.

لتغيير الخارطة: اضغط على الأزرار الخضراء مع رمز الصليب الأسود للتكبير. على الزر الأخضر مع شرطة للتصغير، أو على الأسهم الخضراء للخرائط المجاورة.


METAR-TAF: